Hlavní strana
METAR-TAF:

METAR-TAF

Letiště :

Tampere, Finsko

zeměpisná šířka: 61-25N, zeměpisná délka: 023-35E, výška: 112 m

Aktuální stav počasí

Zpráva byla vytvořena před 22 minutami, v 04:50 UTC
Západní vítr 5 kt
Teplota 10°C
Vlhkost vzduchu 76%
Tlak 1018 hPa
Viditelnost 10 km a více
Žádná oblačnost pod 1500 m, nevyskytují se cumulonimby.

METAR: EFTP 220450Z AUTO 27005KT CAVOK 10/06 Q1018

Čas: 08:12 (05:12 UTC)

Předpověď počasí

Zpráva byla vytvořena před 2 hodinami a 46 minutami, v 02:26 UTC
Předpověď platná od 22 v 03 UTC do 23 v 03 UTC
Západní vítr 5 kt
Viditelnost 10 km a více
Žádná oblačnost pod 1500 m, nevyskytují se cumulonimby.
Změna
od 22 v 14 UTC do 22 v 16 UTC
Jihojihozápadní vítr 10 kt
Pravděpodobnost 30%
od 22 v 22 UTC do 23 v 03 UTC
Viditelnost: 6000 m
Oblačno až skoro zataženo ve výšce 1200 ft
déšť

TAF: EFTP 220226Z 2203/2303 27005KT CAVOK BECMG 2214/2216 21010KT PROB30 2222/2303 6000 RA BKN012

Stav a předpovědi počasí z více než 4 000 letišť (zprávy METAR a TAF).

Červené a žluté tečky na mapě představují dostupné meteorologické stanice.

Když kurzor umístíte na tečku, zobrazí se název stanice.

Pak kliknutím zobrazíte stav a předpověď počasí.

Chcete-li změnit mapu, kliknutím na zelené tlačítko se znaménkem +mapu přiblížíte, kliknutím na zelené tlačítko se znaménkem – mapu oddálíte a kliknutím na zelené šipky přejdete na sousední mapy.


METAR-TAF: